sensor_id;sensor_type;location;lat;lon;timestamp;temperature;humidity
79244;SHT31;68672;42.676;23.356;2023-07-13T00:01:46;23.69;54.11
79244;SHT31;68672;42.676;23.356;2023-07-13T00:04:17;23.60;54.14
79244;SHT31;68672;42.676;23.356;2023-07-13T00:06:44;23.59;54.23
79244;SHT31;68672;42.676;23.356;2023-07-13T00:09:12;23.58;54.25
79244;SHT31;68672;42.676;23.356;2023-07-13T00:11:38;23.53;54.37
79244;SHT31;68672;42.676;23.356;2023-07-13T00:14:04;23.48;54.49
79244;SHT31;68672;42.676;23.356;2023-07-13T00:16:29;23.38;54.52
79244;SHT31;68672;42.676;23.356;2023-07-13T00:18:58;23.35;54.90
79244;SHT31;68672;42.676;23.356;2023-07-13T00:21:25;23.33;55.28
79244;SHT31;68672;42.676;23.356;2023-07-13T00:23:51;23.28;55.26
79244;SHT31;68672;42.676;23.356;2023-07-13T00:26:16;23.25;55.35
79244;SHT31;68672;42.676;23.356;2023-07-13T00:28:42;23.26;55.56
79244;SHT31;68672;42.676;23.356;2023-07-13T00:31:12;23.21;55.47
79244;SHT31;68672;42.676;23.356;2023-07-13T00:33:41;23.18;55.60
79244;SHT31;68672;42.676;23.356;2023-07-13T00:36:08;23.14;55.90
79244;SHT31;68672;42.676;23.356;2023-07-13T00:38:33;23.08;56.03
79244;SHT31;68672;42.676;23.356;2023-07-13T00:40:59;23.04;56.24
79244;SHT31;68672;42.676;23.356;2023-07-13T00:43:26;23.04;56.52
79244;SHT31;68672;42.676;23.356;2023-07-13T00:48:29;22.98;56.77
79244;SHT31;68672;42.676;23.356;2023-07-13T00:50:58;22.94;56.86
79244;SHT31;68672;42.676;23.356;2023-07-13T00:53:27;22.95;56.94
79244;SHT31;68672;42.676;23.356;2023-07-13T00:55:55;22.92;57.12
79244;SHT31;68672;42.676;23.356;2023-07-13T00:58:22;22.90;57.24
79244;SHT31;68672;42.676;23.356;2023-07-13T01:00:48;22.88;57.54
79244;SHT31;68672;42.676;23.356;2023-07-13T01:03:15;22.87;57.74
79244;SHT31;68672;42.676;23.356;2023-07-13T01:05:44;22.83;57.95
79244;SHT31;68672;42.676;23.356;2023-07-13T01:08:11;22.77;58.18
79244;SHT31;68672;42.676;23.356;2023-07-13T01:10:39;22.75;58.45
79244;SHT31;68672;42.676;23.356;2023-07-13T01:13:06;22.73;58.81
79244;SHT31;68672;42.676;23.356;2023-07-13T01:15:39;22.70;58.97
79244;SHT31;68672;42.676;23.356;2023-07-13T01:18:08;22.63;59.38
79244;SHT31;68672;42.676;23.356;2023-07-13T01:20:35;22.64;59.55
79244;SHT31;68672;42.676;23.356;2023-07-13T01:23:11;22.63;59.75
79244;SHT31;68672;42.676;23.356;2023-07-13T01:25:38;22.64;59.70
79244;SHT31;68672;42.676;23.356;2023-07-13T01:28:09;22.61;59.83
79244;SHT31;68672;42.676;23.356;2023-07-13T01:30:40;22.63;60.05
79244;SHT31;68672;42.676;23.356;2023-07-13T01:33:08;22.60;60.27
79244;SHT31;68672;42.676;23.356;2023-07-13T01:35:37;22.57;60.33
79244;SHT31;68672;42.676;23.356;2023-07-13T01:38:04;22.52;60.50
79244;SHT31;68672;42.676;23.356;2023-07-13T01:40:36;22.50;60.78
79244;SHT31;68672;42.676;23.356;2023-07-13T01:43:07;22.50;61.03
79244;SHT31;68672;42.676;23.356;2023-07-13T01:45:33;22.50;61.11
79244;SHT31;68672;42.676;23.356;2023-07-13T01:47:58;22.46;61.09
79244;SHT31;68672;42.676;23.356;2023-07-13T01:50:25;22.47;61.08
79244;SHT31;68672;42.676;23.356;2023-07-13T01:52:53;22.47;61.23
79244;SHT31;68672;42.676;23.356;2023-07-13T01:55:22;22.50;61.26
79244;SHT31;68672;42.676;23.356;2023-07-13T01:57:50;22.53;61.49
79244;SHT31;68672;42.676;23.356;2023-07-13T02:00:19;22.54;61.50
79244;SHT31;68672;42.676;23.356;2023-07-13T02:02:45;22.56;61.49
79244;SHT31;68672;42.676;23.356;2023-07-13T02:05:11;22.56;61.54
79244;SHT31;68672;42.676;23.356;2023-07-13T02:07:40;22.54;61.35
79244;SHT31;68672;42.676;23.356;2023-07-13T02:10:07;22.50;61.62
79244;SHT31;68672;42.676;23.356;2023-07-13T02:12:33;22.49;61.90
79244;SHT31;68672;42.676;23.356;2023-07-13T02:14:58;22.47;61.95
79244;SHT31;68672;42.676;23.356;2023-07-13T02:17:25;22.42;62.01
79244;SHT31;68672;42.676;23.356;2023-07-13T02:19:51;22.39;62.39
79244;SHT31;68672;42.676;23.356;2023-07-13T02:22:17;22.40;62.01
79244;SHT31;68672;42.676;23.356;2023-07-13T02:24:42;22.40;62.37
79244;SHT31;68672;42.676;23.356;2023-07-13T02:27:10;22.36;62.46
79244;SHT31;68672;42.676;23.356;2023-07-13T02:29:35;22.33;62.31
79244;SHT31;68672;42.676;23.356;2023-07-13T02:32:01;22.24;62.35
79244;SHT31;68672;42.676;23.356;2023-07-13T02:34:26;22.22;62.57
79244;SHT31;68672;42.676;23.356;2023-07-13T02:36:52;22.20;62.68
79244;SHT31;68672;42.676;23.356;2023-07-13T02:39:17;22.19;61.06
79244;SHT31;68672;42.676;23.356;2023-07-13T02:41:43;22.19;62.12
79244;SHT31;68672;42.676;23.356;2023-07-13T02:44:08;22.19;62.27
79244;SHT31;68672;42.676;23.356;2023-07-13T02:46:36;22.17;62.38
79244;SHT31;68672;42.676;23.356;2023-07-13T02:49:02;22.14;60.86
79244;SHT31;68672;42.676;23.356;2023-07-13T02:51:30;22.14;60.79
79244;SHT31;68672;42.676;23.356;2023-07-13T02:53:58;22.19;60.87
79244;SHT31;68672;42.676;23.356;2023-07-13T02:56:26;22.20;60.58
79244;SHT31;68672;42.676;23.356;2023-07-13T02:58:52;22.22;59.58
79244;SHT31;68672;42.676;23.356;2023-07-13T03:01:17;22.23;61.04
79244;SHT31;68672;42.676;23.356;2023-07-13T03:03:45;22.22;61.31
79244;SHT31;68672;42.676;23.356;2023-07-13T03:06:14;22.22;61.40
79244;SHT31;68672;42.676;23.356;2023-07-13T03:08:41;22.22;61.58
79244;SHT31;68672;42.676;23.356;2023-07-13T03:11:12;22.16;61.57
79244;SHT31;68672;42.676;23.356;2023-07-13T03:13:39;22.14;61.66
79244;SHT31;68672;42.676;23.356;2023-07-13T03:16:05;22.12;61.95
79244;SHT31;68672;42.676;23.356;2023-07-13T03:18:31;22.09;62.02
79244;SHT31;68672;42.676;23.356;2023-07-13T03:20:57;22.06;62.27
79244;SHT31;68672;42.676;23.356;2023-07-13T03:23:23;22.01;62.49
79244;SHT31;68672;42.676;23.356;2023-07-13T03:25:50;21.98;62.63
79244;SHT31;68672;42.676;23.356;2023-07-13T03:28:15;21.96;62.71
79244;SHT31;68672;42.676;23.356;2023-07-13T03:30:41;21.98;62.93
79244;SHT31;68672;42.676;23.356;2023-07-13T03:33:07;21.92;63.12
79244;SHT31;68672;42.676;23.356;2023-07-13T03:35:41;21.88;63.30
79244;SHT31;68672;42.676;23.356;2023-07-13T03:38:06;21.86;63.55
79244;SHT31;68672;42.676;23.356;2023-07-13T03:40:32;21.88;63.71
79244;SHT31;68672;42.676;23.356;2023-07-13T03:42:57;21.86;63.99
79244;SHT31;68672;42.676;23.356;2023-07-13T03:45:22;21.89;64.16
79244;SHT31;68672;42.676;23.356;2023-07-13T03:47:48;21.91;64.54
79244;SHT31;68672;42.676;23.356;2023-07-13T03:50:13;21.95;64.80
79244;SHT31;68672;42.676;23.356;2023-07-13T03:52:39;21.88;64.84
79244;SHT31;68672;42.676;23.356;2023-07-13T03:55:04;21.88;64.97
79244;SHT31;68672;42.676;23.356;2023-07-13T03:57:31;21.89;65.05
79244;SHT31;68672;42.676;23.356;2023-07-13T03:59:57;21.86;65.08
79244;SHT31;68672;42.676;23.356;2023-07-13T04:02:22;21.92;65.40
79244;SHT31;68672;42.676;23.356;2023-07-13T04:04:47;21.92;65.53
79244;SHT31;68672;42.676;23.356;2023-07-13T04:07:13;21.95;65.69
79244;SHT31;68672;42.676;23.356;2023-07-13T04:09:38;22.01;65.91
79244;SHT31;68672;42.676;23.356;2023-07-13T04:12:04;22.02;65.97
79244;SHT31;68672;42.676;23.356;2023-07-13T04:14:30;22.12;65.89
79244;SHT31;68672;42.676;23.356;2023-07-13T04:17:04;22.17;65.91
79244;SHT31;68672;42.676;23.356;2023-07-13T04:19:30;22.24;65.93
79244;SHT31;68672;42.676;23.356;2023-07-13T04:21:55;22.30;66.02
79244;SHT31;68672;42.676;23.356;2023-07-13T04:24:21;22.39;65.91
79244;SHT31;68672;42.676;23.356;2023-07-13T04:26:46;22.42;65.75
79244;SHT31;68672;42.676;23.356;2023-07-13T04:29:11;22.49;65.65
79244;SHT31;68672;42.676;23.356;2023-07-13T04:31:37;22.53;65.37
79244;SHT31;68672;42.676;23.356;2023-07-13T04:34:02;22.57;64.99
79244;SHT31;68672;42.676;23.356;2023-07-13T04:36:28;22.64;64.59
79244;SHT31;68672;42.676;23.356;2023-07-13T04:38:53;22.70;64.38
79244;SHT31;68672;42.676;23.356;2023-07-13T04:41:20;22.78;64.02
79244;SHT31;68672;42.676;23.356;2023-07-13T04:43:48;22.83;63.78
79244;SHT31;68672;42.676;23.356;2023-07-13T04:46:16;22.90;63.45
79244;SHT31;68672;42.676;23.356;2023-07-13T04:48:43;22.92;62.97
79244;SHT31;68672;42.676;23.356;2023-07-13T04:51:09;23.01;62.73
79244;SHT31;68672;42.676;23.356;2023-07-13T04:53:34;23.10;62.69
79244;SHT31;68672;42.676;23.356;2023-07-13T04:56:00;23.14;62.63
79244;SHT31;68672;42.676;23.356;2023-07-13T04:58:26;23.19;62.66
79244;SHT31;68672;42.676;23.356;2023-07-13T05:00:52;23.32;62.68
79244;SHT31;68672;42.676;23.356;2023-07-13T05:03:17;23.41;62.60
79244;SHT31;68672;42.676;23.356;2023-07-13T05:05:43;23.49;62.53
79244;SHT31;68672;42.676;23.356;2023-07-13T05:08:08;23.52;61.75
79244;SHT31;68672;42.676;23.356;2023-07-13T05:10:35;23.56;60.98
79244;SHT31;68672;42.676;23.356;2023-07-13T05:13:00;23.60;60.41
79244;SHT31;68672;42.676;23.356;2023-07-13T05:15:26;23.69;60.22
79244;SHT31;68672;42.676;23.356;2023-07-13T05:17:51;23.73;60.17
79244;SHT31;68672;42.676;23.356;2023-07-13T05:20:18;23.83;59.96
79244;SHT31;68672;42.676;23.356;2023-07-13T05:22:49;23.89;59.89
79244;SHT31;68672;42.676;23.356;2023-07-13T05:25:15;23.94;60.08
79244;SHT31;68672;42.676;23.356;2023-07-13T05:27:43;23.97;59.47
79244;SHT31;68672;42.676;23.356;2023-07-13T05:30:13;24.04;59.30
79244;SHT31;68672;42.676;23.356;2023-07-13T05:32:38;24.11;59.29
79244;SHT31;68672;42.676;23.356;2023-07-13T05:35:07;24.17;59.10
79244;SHT31;68672;42.676;23.356;2023-07-13T05:37:33;24.22;58.62
79244;SHT31;68672;42.676;23.356;2023-07-13T05:39:58;24.32;58.22
79244;SHT31;68672;42.676;23.356;2023-07-13T05:42:29;24.37;58.00
79244;SHT31;68672;42.676;23.356;2023-07-13T05:44:56;24.44;57.85
79244;SHT31;68672;42.676;23.356;2023-07-13T05:47:22;24.51;57.98
79244;SHT31;68672;42.676;23.356;2023-07-13T05:49:47;24.61;58.43
79244;SHT31;68672;42.676;23.356;2023-07-13T05:52:12;24.72;58.70
79244;SHT31;68672;42.676;23.356;2023-07-13T05:54:38;24.83;58.50
79244;SHT31;68672;42.676;23.356;2023-07-13T05:57:03;24.93;57.85
79244;SHT31;68672;42.676;23.356;2023-07-13T05:59:31;25.03;57.47
79244;SHT31;68672;42.676;23.356;2023-07-13T06:01:57;25.12;57.15
79244;SHT31;68672;42.676;23.356;2023-07-13T06:04:22;25.20;56.97
79244;SHT31;68672;42.676;23.356;2023-07-13T06:06:50;25.34;56.71
79244;SHT31;68672;42.676;23.356;2023-07-13T06:09:16;25.44;56.57
79244;SHT31;68672;42.676;23.356;2023-07-13T06:11:42;25.56;55.58
79244;SHT31;68672;42.676;23.356;2023-07-13T06:14:07;25.63;55.03
79244;SHT31;68672;42.676;23.356;2023-07-13T06:16:33;25.74;55.36
79244;SHT31;68672;42.676;23.356;2023-07-13T06:18:58;25.87;54.76
79244;SHT31;68672;42.676;23.356;2023-07-13T06:21:24;25.98;53.59
79244;SHT31;68672;42.676;23.356;2023-07-13T06:23:50;26.05;53.03
79244;SHT31;68672;42.676;23.356;2023-07-13T06:26:17;26.12;53.01
79244;SHT31;68672;42.676;23.356;2023-07-13T06:28:43;26.21;53.62
79244;SHT31;68672;42.676;23.356;2023-07-13T06:31:10;26.32;52.88
79244;SHT31;68672;42.676;23.356;2023-07-13T06:33:36;26.42;52.41
79244;SHT31;68672;42.676;23.356;2023-07-13T06:36:03;26.46;52.31
79244;SHT31;68672;42.676;23.356;2023-07-13T06:38:29;26.55;52.35
79244;SHT31;68672;42.676;23.356;2023-07-13T06:41:00;26.64;52.27
79244;SHT31;68672;42.676;23.356;2023-07-13T06:43:25;26.75;52.22
79244;SHT31;68672;42.676;23.356;2023-07-13T06:45:51;26.87;51.41
79244;SHT31;68672;42.676;23.356;2023-07-13T06:48:19;26.94;50.71
79244;SHT31;68672;42.676;23.356;2023-07-13T06:50:46;27.06;50.84
79244;SHT31;68672;42.676;23.356;2023-07-13T06:53:12;27.15;49.83
79244;SHT31;68672;42.676;23.356;2023-07-13T06:55:38;27.25;49.68
79244;SHT31;68672;42.676;23.356;2023-07-13T06:58:04;27.33;49.86
79244;SHT31;68672;42.676;23.356;2023-07-13T07:00:30;27.39;49.69
79244;SHT31;68672;42.676;23.356;2023-07-13T07:02:55;27.48;49.95
79244;SHT31;68672;42.676;23.356;2023-07-13T07:05:21;27.58;49.92
79244;SHT31;68672;42.676;23.356;2023-07-13T07:07:51;27.69;49.87
79244;SHT31;68672;42.676;23.356;2023-07-13T07:10:17;27.75;48.94
79244;SHT31;68672;42.676;23.356;2023-07-13T07:12:42;27.83;47.88
79244;SHT31;68672;42.676;23.356;2023-07-13T07:15:08;27.93;47.95
79244;SHT31;68672;42.676;23.356;2023-07-13T07:17:33;28.00;48.92
79244;SHT31;68672;42.676;23.356;2023-07-13T07:19:59;28.06;48.95
79244;SHT31;68672;42.676;23.356;2023-07-13T07:22:26;28.18;48.19
79244;SHT31;68672;42.676;23.356;2023-07-13T07:24:56;28.24;48.16
79244;SHT31;68672;42.676;23.356;2023-07-13T07:27:22;28.30;47.44
79244;SHT31;68672;42.676;23.356;2023-07-13T07:29:48;28.37;48.27
79244;SHT31;68672;42.676;23.356;2023-07-13T07:32:13;28.47;49.05
79244;SHT31;68672;42.676;23.356;2023-07-13T07:34:39;28.57;49.04
79244;SHT31;68672;42.676;23.356;2023-07-13T07:37:05;28.65;48.03
79244;SHT31;68672;42.676;23.356;2023-07-13T07:39:31;28.75;47.46
79244;SHT31;68672;42.676;23.356;2023-07-13T07:41:59;28.85;46.49
79244;SHT31;68672;42.676;23.356;2023-07-13T07:44:24;28.90;45.88
79244;SHT31;68672;42.676;23.356;2023-07-13T07:46:50;28.92;44.85
79244;SHT31;68672;42.676;23.356;2023-07-13T07:49:16;28.94;45.04
79244;SHT31;68672;42.676;23.356;2023-07-13T07:51:41;28.99;45.73
79244;SHT31;68672;42.676;23.356;2023-07-13T07:54:06;29.06;45.00
79244;SHT31;68672;42.676;23.356;2023-07-13T07:56:32;29.11;45.30
79244;SHT31;68672;42.676;23.356;2023-07-13T07:58:58;29.15;45.41
79244;SHT31;68672;42.676;23.356;2023-07-13T08:01:24;29.23;46.07
79244;SHT31;68672;42.676;23.356;2023-07-13T08:03:49;29.30;46.06
79244;SHT31;68672;42.676;23.356;2023-07-13T08:06:15;29.39;44.60
79244;SHT31;68672;42.676;23.356;2023-07-13T08:08:40;29.43;45.57
79244;SHT31;68672;42.676;23.356;2023-07-13T08:11:20;29.56;45.82
79244;SHT31;68672;42.676;23.356;2023-07-13T08:13:46;29.63;44.24
79244;SHT31;68672;42.676;23.356;2023-07-13T08:16:11;29.72;44.59
79244;SHT31;68672;42.676;23.356;2023-07-13T08:18:39;29.80;44.67
79244;SHT31;68672;42.676;23.356;2023-07-13T08:21:09;29.94;45.95
79244;SHT31;68672;42.676;23.356;2023-07-13T08:23:40;30.10;45.13
79244;SHT31;68672;42.676;23.356;2023-07-13T08:26:06;30.10;42.86
79244;SHT31;68672;42.676;23.356;2023-07-13T08:28:34;30.15;43.98
79244;SHT31;68672;42.676;23.356;2023-07-13T08:31:06;30.28;43.88
79244;SHT31;68672;42.676;23.356;2023-07-13T08:33:35;30.39;43.53
79244;SHT31;68672;42.676;23.356;2023-07-13T08:36:01;30.45;44.25
79244;SHT31;68672;42.676;23.356;2023-07-13T08:38:39;30.58;44.03
79244;SHT31;68672;42.676;23.356;2023-07-13T08:41:15;30.70;43.72
79244;SHT31;68672;42.676;23.356;2023-07-13T08:43:43;30.76;42.95
79244;SHT31;68672;42.676;23.356;2023-07-13T08:46:34;30.84;43.21
79244;SHT31;68672;42.676;23.356;2023-07-13T08:49:04;30.93;42.94
79244;SHT31;68672;42.676;23.356;2023-07-13T08:54:14;31.10;42.05
79244;SHT31;68672;42.676;23.356;2023-07-13T08:56:45;31.17;41.24
79244;SHT31;68672;42.676;23.356;2023-07-13T08:59:15;31.23;41.04
79244;SHT31;68672;42.676;23.356;2023-07-13T09:04:21;31.40;41.52
79244;SHT31;68672;42.676;23.356;2023-07-13T09:09:29;31.58;40.43
79244;SHT31;68672;42.676;23.356;2023-07-13T09:15:07;31.74;41.77
79244;SHT31;68672;42.676;23.356;2023-07-13T09:17:48;31.81;41.67
79244;SHT31;68672;42.676;23.356;2023-07-13T09:22:50;31.91;41.40
79244;SHT31;68672;42.676;23.356;2023-07-13T09:25:34;31.99;41.09
79244;SHT31;68672;42.676;23.356;2023-07-13T09:28:08;32.09;40.76
79244;SHT31;68672;42.676;23.356;2023-07-13T09:30:56;32.19;41.36
79244;SHT31;68672;42.676;23.356;2023-07-13T09:33:23;32.33;39.90
79244;SHT31;68672;42.676;23.356;2023-07-13T09:35:49;32.40;39.69
79244;SHT31;68672;42.676;23.356;2023-07-13T09:38:17;32.49;40.27
79244;SHT31;68672;42.676;23.356;2023-07-13T09:43:26;32.67;39.81
79244;SHT31;68672;42.676;23.356;2023-07-13T09:45:54;32.78;40.15
79244;SHT31;68672;42.676;23.356;2023-07-13T09:48:23;32.94;39.49
79244;SHT31;68672;42.676;23.356;2023-07-13T09:50:54;33.08;39.20
79244;SHT31;68672;42.676;23.356;2023-07-13T09:53:21;33.18;39.32
79244;SHT31;68672;42.676;23.356;2023-07-13T09:55:48;33.28;39.02
79244;SHT31;68672;42.676;23.356;2023-07-13T09:58:24;33.38;38.56
79244;SHT31;68672;42.676;23.356;2023-07-13T10:00:58;33.54;37.73
79244;SHT31;68672;42.676;23.356;2023-07-13T10:03:27;33.58;36.54
79244;SHT31;68672;42.676;23.356;2023-07-13T10:05:53;33.69;36.83
79244;SHT31;68672;42.676;23.356;2023-07-13T10:08:26;33.85;36.69
79244;SHT31;68672;42.676;23.356;2023-07-13T10:11:00;33.89;35.92
79244;SHT31;68672;42.676;23.356;2023-07-13T10:13:29;33.95;36.85
79244;SHT31;68672;42.676;23.356;2023-07-13T10:15:55;34.00;36.81
79244;SHT31;68672;42.676;23.356;2023-07-13T10:18:22;34.06;36.98
79244;SHT31;68672;42.676;23.356;2023-07-13T10:20:50;34.10;36.48
79244;SHT31;68672;42.676;23.356;2023-07-13T10:23:21;34.17;36.54
79244;SHT31;68672;42.676;23.356;2023-07-13T10:25:50;34.30;36.34
79244;SHT31;68672;42.676;23.356;2023-07-13T10:30:43;34.61;34.99
79244;SHT31;68672;42.676;23.356;2023-07-13T10:33:18;34.72;34.54
79244;SHT31;68672;42.676;23.356;2023-07-13T10:35:44;34.91;34.16
79244;SHT31;68672;42.676;23.356;2023-07-13T10:38:18;35.01;32.23
79244;SHT31;68672;42.676;23.356;2023-07-13T10:41:03;35.09;30.98
79244;SHT31;68672;42.676;23.356;2023-07-13T10:43:36;35.21;29.04
79244;SHT31;68672;42.676;23.356;2023-07-13T10:46:08;35.26;28.35
79244;SHT31;68672;42.676;23.356;2023-07-13T10:48:36;35.38;28.19
79244;SHT31;68672;42.676;23.356;2023-07-13T10:51:04;35.47;28.80
79244;SHT31;68672;42.676;23.356;2023-07-13T10:53:33;35.66;27.79
79244;SHT31;68672;42.676;23.356;2023-07-13T10:58:46;35.91;27.35
79244;SHT31;68672;42.676;23.356;2023-07-13T11:01:15;36.02;27.36
79244;SHT31;68672;42.676;23.356;2023-07-13T11:03:58;36.20;27.49
79244;SHT31;68672;42.676;23.356;2023-07-13T11:08:57;36.44;26.72
79244;SHT31;68672;42.676;23.356;2023-07-13T11:13:58;36.61;25.07
79244;SHT31;68672;42.676;23.356;2023-07-13T11:16:44;36.61;25.10
79244;SHT31;68672;42.676;23.356;2023-07-13T11:24:49;36.82;25.39
79244;SHT31;68672;42.676;23.356;2023-07-13T11:27:41;36.86;25.30
79244;SHT31;68672;42.676;23.356;2023-07-13T11:33:20;37.06;25.65
79244;SHT31;68672;42.676;23.356;2023-07-13T11:41:23;37.36;26.09
79244;SHT31;68672;42.676;23.356;2023-07-13T11:44:05;37.37;25.26
79244;SHT31;68672;42.676;23.356;2023-07-13T11:46:34;37.43;25.74
79244;SHT31;68672;42.676;23.356;2023-07-13T11:48:59;37.48;26.33
79244;SHT31;68672;42.676;23.356;2023-07-13T11:51:30;37.53;27.03
79244;SHT31;68672;42.676;23.356;2023-07-13T11:54:01;37.57;26.14
79244;SHT31;68672;42.676;23.356;2023-07-13T11:56:27;37.58;26.11
79244;SHT31;68672;42.676;23.356;2023-07-13T11:58:55;37.67;27.27
79244;SHT31;68672;42.676;23.356;2023-07-13T12:01:24;37.70;26.67
79244;SHT31;68672;42.676;23.356;2023-07-13T12:03:51;37.75;26.41
79244;SHT31;68672;42.676;23.356;2023-07-13T12:06:47;37.89;26.42
79244;SHT31;68672;42.676;23.356;2023-07-13T12:09:19;37.98;26.66
79244;SHT31;68672;42.676;23.356;2023-07-13T12:11:50;37.95;25.50
79244;SHT31;68672;42.676;23.356;2023-07-13T12:14:17;37.94;25.25
79244;SHT31;68672;42.676;23.356;2023-07-13T12:16:45;37.91;26.02
79244;SHT31;68672;42.676;23.356;2023-07-13T12:19:23;37.89;25.59
79244;SHT31;68672;42.676;23.356;2023-07-13T12:21:52;37.94;25.57
79244;SHT31;68672;42.676;23.356;2023-07-13T12:24:20;37.98;25.90
79244;SHT31;68672;42.676;23.356;2023-07-13T12:27:02;38.06;25.52
79244;SHT31;68672;42.676;23.356;2023-07-13T12:29:29;38.11;24.61
79244;SHT31;68672;42.676;23.356;2023-07-13T12:31:54;38.14;24.95
79244;SHT31;68672;42.676;23.356;2023-07-13T12:34:22;38.15;25.39
79244;SHT31;68672;42.676;23.356;2023-07-13T12:36:56;38.26;24.79
79244;SHT31;68672;42.676;23.356;2023-07-13T12:39:36;38.31;24.68
79244;SHT31;68672;42.676;23.356;2023-07-13T12:42:24;38.40;24.56
79244;SHT31;68672;42.676;23.356;2023-07-13T12:45:20;38.46;24.88
79244;SHT31;68672;42.676;23.356;2023-07-13T12:47:56;38.52;24.42
79244;SHT31;68672;42.676;23.356;2023-07-13T12:50:39;38.60;25.16
79244;SHT31;68672;42.676;23.356;2023-07-13T12:53:28;38.74;24.85
79244;SHT31;68672;42.676;23.356;2023-07-13T12:55:57;38.92;24.75
79244;SHT31;68672;42.676;23.356;2023-07-13T12:58:39;39.11;24.83
79244;SHT31;68672;42.676;23.356;2023-07-13T13:01:10;39.35;25.19
79244;SHT31;68672;42.676;23.356;2023-07-13T13:03:49;39.61;24.66
79244;SHT31;68672;42.676;23.356;2023-07-13T13:08:46;40.01;24.56
79244;SHT31;68672;42.676;23.356;2023-07-13T13:11:11;40.37;24.12
79244;SHT31;68672;42.676;23.356;2023-07-13T13:13:36;40.77;23.30
79244;SHT31;68672;42.676;23.356;2023-07-13T13:16:12;41.08;22.56
79244;SHT31;68672;42.676;23.356;2023-07-13T13:18:38;41.49;22.06
79244;SHT31;68672;42.676;23.356;2023-07-13T13:21:06;41.87;21.99
79244;SHT31;68672;42.676;23.356;2023-07-13T13:23:32;42.27;21.19
79244;SHT31;68672;42.676;23.356;2023-07-13T13:25:57;42.69;20.93
79244;SHT31;68672;42.676;23.356;2023-07-13T13:28:24;42.89;21.21
79244;SHT31;68672;42.676;23.356;2023-07-13T13:30:51;43.12;21.36
79244;SHT31;68672;42.676;23.356;2023-07-13T13:33:19;43.47;20.93
79244;SHT31;68672;42.676;23.356;2023-07-13T13:35:45;43.68;20.37
79244;SHT31;68672;42.676;23.356;2023-07-13T13:38:23;43.68;20.77
79244;SHT31;68672;42.676;23.356;2023-07-13T13:40:50;43.65;20.75
79244;SHT31;68672;42.676;23.356;2023-07-13T13:43:16;43.44;20.82
79244;SHT31;68672;42.676;23.356;2023-07-13T13:45:44;42.90;21.88
79244;SHT31;68672;42.676;23.356;2023-07-13T13:48:33;42.13;21.55
79244;SHT31;68672;42.676;23.356;2023-07-13T13:51:00;41.60;22.34
79244;SHT31;68672;42.676;23.356;2023-07-13T13:53:26;41.08;22.81
79244;SHT31;68672;42.676;23.356;2023-07-13T13:55:52;40.61;23.37
79244;SHT31;68672;42.676;23.356;2023-07-13T13:58:18;40.20;23.78
79244;SHT31;68672;42.676;23.356;2023-07-13T14:00:45;39.88;24.27
79244;SHT31;68672;42.676;23.356;2023-07-13T14:03:18;39.55;24.07
79244;SHT31;68672;42.676;23.356;2023-07-13T14:05:44;39.27;25.41
79244;SHT31;68672;42.676;23.356;2023-07-13T14:08:17;38.89;24.90
79244;SHT31;68672;42.676;23.356;2023-07-13T14:10:44;38.56;26.07
79244;SHT31;68672;42.676;23.356;2023-07-13T14:13:21;38.43;27.60
79244;SHT31;68672;42.676;23.356;2023-07-13T14:15:47;38.36;26.72
79244;SHT31;68672;42.676;23.356;2023-07-13T14:18:13;38.36;25.86
79244;SHT31;68672;42.676;23.356;2023-07-13T14:20:44;38.45;25.76
79244;SHT31;68672;42.676;23.356;2023-07-13T14:23:12;38.42;24.98
79244;SHT31;68672;42.676;23.356;2023-07-13T14:25:37;38.39;25.70
79244;SHT31;68672;42.676;23.356;2023-07-13T14:28:20;38.36;24.64
79244;SHT31;68672;42.676;23.356;2023-07-13T14:30:47;38.31;25.27
79244;SHT31;68672;42.676;23.356;2023-07-13T14:33:13;38.25;25.55
79244;SHT31;68672;42.676;23.356;2023-07-13T14:35:38;38.33;26.14
79244;SHT31;68672;42.676;23.356;2023-07-13T14:38:04;38.45;25.36
79244;SHT31;68672;42.676;23.356;2023-07-13T14:40:31;38.62;24.97
79244;SHT31;68672;42.676;23.356;2023-07-13T14:42:59;38.73;25.19
79244;SHT31;68672;42.676;23.356;2023-07-13T14:45:26;38.79;25.10
79244;SHT31;68672;42.676;23.356;2023-07-13T14:47:55;38.80;24.95
79244;SHT31;68672;42.676;23.356;2023-07-13T14:50:27;38.67;25.34
79244;SHT31;68672;42.676;23.356;2023-07-13T14:52:54;38.49;25.31
79244;SHT31;68672;42.676;23.356;2023-07-13T14:55:19;38.26;24.74
79244;SHT31;68672;42.676;23.356;2023-07-13T14:57:45;38.05;25.46
79244;SHT31;68672;42.676;23.356;2023-07-13T15:00:16;37.87;26.05
79244;SHT31;68672;42.676;23.356;2023-07-13T15:02:44;37.66;26.05
79244;SHT31;68672;42.676;23.356;2023-07-13T15:05:23;37.54;26.64
79244;SHT31;68672;42.676;23.356;2023-07-13T15:07:50;37.33;26.51
79244;SHT31;68672;42.676;23.356;2023-07-13T15:12:42;37.10;27.54
79244;SHT31;68672;42.676;23.356;2023-07-13T15:15:08;36.95;27.49
79244;SHT31;68672;42.676;23.356;2023-07-13T15:17:44;36.78;27.61
79244;SHT31;68672;42.676;23.356;2023-07-13T15:20:31;36.69;27.99
79244;SHT31;68672;42.676;23.356;2023-07-13T15:22:57;36.53;28.78
79244;SHT31;68672;42.676;23.356;2023-07-13T15:25:26;36.44;29.42
79244;SHT31;68672;42.676;23.356;2023-07-13T15:27:53;36.32;30.59
79244;SHT31;68672;42.676;23.356;2023-07-13T15:30:22;36.24;29.98
79244;SHT31;68672;42.676;23.356;2023-07-13T15:32:47;36.12;29.47
79244;SHT31;68672;42.676;23.356;2023-07-13T15:35:15;36.00;28.85
79244;SHT31;68672;42.676;23.356;2023-07-13T15:37:44;35.90;29.00
79244;SHT31;68672;42.676;23.356;2023-07-13T15:40:11;35.83;29.42
79244;SHT31;68672;42.676;23.356;2023-07-13T15:42:41;35.79;29.50
79244;SHT31;68672;42.676;23.356;2023-07-13T15:45:23;35.73;29.91
79244;SHT31;68672;42.676;23.356;2023-07-13T15:47:50;35.69;29.70
79244;SHT31;68672;42.676;23.356;2023-07-13T15:50:18;35.64;29.39
79244;SHT31;68672;42.676;23.356;2023-07-13T15:52:46;35.60;30.48
79244;SHT31;68672;42.676;23.356;2023-07-13T15:55:13;35.57;30.96
79244;SHT31;68672;42.676;23.356;2023-07-13T15:57:46;35.49;31.57
79244;SHT31;68672;42.676;23.356;2023-07-13T16:00:26;35.45;30.16
79244;SHT31;68672;42.676;23.356;2023-07-13T16:02:52;35.38;30.97
79244;SHT31;68672;42.676;23.356;2023-07-13T16:05:23;35.33;31.42
79244;SHT31;68672;42.676;23.356;2023-07-13T16:07:53;35.26;31.66
79244;SHT31;68672;42.676;23.356;2023-07-13T16:10:36;35.23;31.31
79244;SHT31;68672;42.676;23.356;2023-07-13T16:13:11;35.15;31.19